Time;durP1;ratioP1;P1;durP2;ratioP2;P2;SDS_P1;SDS_P2;PMS_P1;PMS_P2;Temp;Humidity;BMP_temperature;BMP_pressure;BME280_temperature;BME280_humidity;BME280_pressure;Samples;Min_cycle;Max_cycle;Signal;HPM_P1;HPM_P2
2022/05/16 00:00:31;;;;;;;0.70;0.70;;;9.20;94.90;;;;;;5074436;28;20228;-70
2022/05/16 00:03:00;;;;;;;0.70;0.70;;;9.20;94.60;;;;;;5075965;28;20299;-70
2022/05/16 00:05:26;;;;;;;0.60;0.60;;;9.10;94.40;;;;;;5074267;28;20235;-70
2022/05/16 00:07:53;;;;;;;0.70;0.70;;;9.10;94.80;;;;;;5075806;28;20231;-71
2022/05/16 00:10:19;;;;;;;0.60;0.60;;;9.00;94.90;;;;;;5059712;28;20276;-70
2022/05/16 00:12:45;;;;;;;0.60;0.60;;;8.90;94.90;;;;;;5055508;28;20229;-70
2022/05/16 00:15:13;;;;;;;0.68;0.68;;;8.80;94.80;;;;;;5055587;28;20743;-71
2022/05/16 00:17:39;;;;;;;0.70;0.70;;;8.80;95.50;;;;;;5055568;28;20238;-69
2022/05/16 00:20:06;;;;;;;0.70;0.70;;;8.60;95.80;;;;;;5054680;28;20228;-70
2022/05/16 00:22:32;;;;;;;0.70;0.70;;;8.60;95.70;;;;;;5054308;28;20292;-71
2022/05/16 00:24:57;;;;;;;0.70;0.70;;;8.50;96.10;;;;;;5053538;28;20691;-70
2022/05/16 00:27:23;;;;;;;0.60;0.60;;;8.40;96.40;;;;;;5055554;28;20268;-70
2022/05/16 00:29:52;;;;;;;0.70;0.70;;;8.40;96.30;;;;;;5055519;28;20204;-72
2022/05/16 00:32:26;;;;;;;0.70;0.70;;;8.30;96.70;;;;;;5055674;28;20190;-72
2022/05/16 00:34:52;;;;;;;0.60;0.60;;;8.30;96.70;;;;;;5054144;28;20233;-71
2022/05/16 00:37:20;;;;;;;0.63;0.63;;;8.20;96.70;;;;;;5055466;28;20209;-71
2022/05/16 00:39:52;;;;;;;0.70;0.70;;;8.10;97.00;;;;;;5055631;28;20193;-71
2022/05/16 00:42:21;;;;;;;0.65;0.65;;;8.00;97.20;;;;;;5054954;28;20251;-72
2022/05/16 00:44:47;;;;;;;0.70;0.70;;;7.90;97.50;;;;;;5073866;28;20192;-72
2022/05/16 00:47:16;;;;;;;0.70;0.70;;;7.80;97.80;;;;;;5074085;28;20189;-71
2022/05/16 00:50:00;;;;;;;0.60;0.60;;;7.70;97.80;;;;;;5075202;28;20655;-71
2022/05/16 00:52:55;;;;;;;0.70;0.70;;;7.70;98.20;;;;;;5073750;28;20200;-71
2022/05/16 00:55:31;;;;;;;0.70;0.70;;;7.50;98.30;;;;;;5072146;28;20205;-71
2022/05/16 00:58:03;;;;;;;0.70;0.70;;;7.50;98.60;;;;;;5074694;28;20567;-71
2022/05/16 01:00:35;;;;;;;0.70;0.70;;;7.40;98.80;;;;;;5073751;28;20280;-74
2022/05/16 01:06:06;;;;;;;0.70;0.70;;;7.20;98.90;;;;;;5072880;28;20224;-73
2022/05/16 01:08:34;;;;;;;1.33;0.95;;;7.20;98.90;;;;;;5073283;28;20212;-73
2022/05/16 01:11:08;;;;;;;0.80;0.80;;;7.10;98.70;;;;;;5073352;28;20332;-74
2022/05/16 01:13:34;;;;;;;0.70;0.70;;;7.10;98.80;;;;;;5073307;28;20196;-73
2022/05/16 01:16:02;;;;;;;0.70;0.70;;;7.00;98.90;;;;;;5073722;28;20213;-73
2022/05/16 01:18:28;;;;;;;0.85;0.85;;;7.00;99.00;;;;;;5074437;28;20659;-72
2022/05/16 01:21:03;;;;;;;0.70;0.70;;;6.90;98.80;;;;;;5074633;28;20632;-73
2022/05/16 01:23:43;;;;;;;0.70;0.70;;;6.90;99.00;;;;;;5072971;28;20563;-73
2022/05/16 01:26:16;;;;;;;0.70;0.70;;;6.80;99.00;;;;;;5073148;28;20288;-73
2022/05/16 01:28:41;;;;;;;0.77;0.77;;;6.70;98.90;;;;;;5074205;28;20209;-74
2022/05/16 01:31:07;;;;;;;0.73;0.73;;;6.70;99.10;;;;;;5073016;28;20197;-73
2022/05/16 01:33:33;;;;;;;0.75;0.75;;;6.70;98.80;;;;;;5074078;28;20220;-73
2022/05/16 01:35:59;;;;;;;0.70;0.70;;;6.70;99.10;;;;;;5073059;28;20192;-73
2022/05/16 01:38:27;;;;;;;0.80;0.80;;;6.70;98.90;;;;;;5074039;28;20193;-73
2022/05/16 01:40:56;;;;;;;0.77;0.77;;;6.60;99.30;;;;;;5069748;28;20631;-73
2022/05/16 01:43:25;;;;;;;0.80;0.80;;;6.50;99.50;;;;;;5054023;28;20193;-73
2022/05/16 01:45:51;;;;;;;0.77;0.77;;;6.40;99.50;;;;;;5072634;28;20224;-74
2022/05/16 01:48:18;;;;;;;0.73;0.73;;;6.40;99.60;;;;;;5072004;28;20725;-74
2022/05/16 01:50:46;;;;;;;0.80;0.80;;;6.30;99.90;;;;;;5073804;28;20246;-73
2022/05/16 01:53:13;;;;;;;0.80;0.80;;;6.30;99.90;;;;;;5072558;28;20265;-74
2022/05/16 01:55:39;;;;;;;0.70;0.70;;;6.20;99.90;;;;;;5073501;28;20563;-74
2022/05/16 01:58:07;;;;;;;5.07;1.35;;;6.20;99.90;;;;;;5073475;28;20207;-73
2022/05/16 02:00:34;;;;;;;0.70;0.70;;;6.10;99.90;;;;;;5067337;28;20201;-73
2022/05/16 02:03:01;;;;;;;0.70;0.70;;;6.10;99.70;;;;;;5073601;28;20212;-73
2022/05/16 02:05:27;;;;;;;0.70;0.70;;;6.10;99.80;;;;;;5073564;28;20207;-73
2022/05/16 02:07:53;;;;;;;0.98;0.98;;;6.00;99.90;;;;;;5073587;28;20208;-74
2022/05/16 02:10:23;;;;;;;0.77;0.77;;;6.00;99.90;;;;;;5072231;28;20635;-73
2022/05/16 02:12:50;;;;;;;0.70;0.70;;;5.90;99.90;;;;;;5072470;28;20201;-74
2022/05/16 02:15:18;;;;;;;0.75;0.75;;;5.80;99.90;;;;;;5072274;28;20223;-74
2022/05/16 02:17:45;;;;;;;0.70;0.70;;;5.70;99.90;;;;;;5073499;28;20675;-74
2022/05/16 02:20:12;;;;;;;0.90;0.90;;;5.70;99.90;;;;;;5072459;28;20878;-73
2022/05/16 02:25:22;;;;;;;0.77;0.77;;;5.70;99.90;;;;;;5073163;28;20342;-73
2022/05/16 02:27:50;;;;;;;0.70;0.70;;;5.70;99.90;;;;;;5071835;28;20295;-74
2022/05/16 02:30:16;;;;;;;0.70;0.70;;;5.70;99.90;;;;;;5072062;28;20204;-73
2022/05/16 02:32:42;;;;;;;0.70;0.70;;;5.60;99.90;;;;;;5073322;28;20189;-73
2022/05/16 02:35:09;;;;;;;0.80;0.80;;;5.60;99.90;;;;;;5072304;28;20235;-73
2022/05/16 02:37:35;;;;;;;0.70;0.70;;;5.60;99.90;;;;;;5073073;28;20197;-73
2022/05/16 02:40:01;;;;;;;0.70;0.70;;;5.50;99.90;;;;;;5073348;28;20707;-73
2022/05/16 02:42:27;;;;;;;0.70;0.70;;;5.50;99.90;;;;;;5072974;28;20231;-73
2022/05/16 02:44:52;;;;;;;0.80;0.80;;;5.50;99.90;;;;;;5071830;28;20196;-73
2022/05/16 02:47:20;;;;;;;0.80;0.80;;;5.40;99.90;;;;;;5072960;28;20632;-74
2022/05/16 02:49:46;;;;;;;0.75;0.75;;;5.30;99.90;;;;;;5073061;28;20195;-74
2022/05/16 02:52:12;;;;;;;0.80;0.80;;;5.20;99.90;;;;;;5072962;28;20680;-73
2022/05/16 02:54:38;;;;;;;0.68;0.68;;;5.20;99.90;;;;;;5071764;28;20212;-73
2022/05/16 02:57:05;;;;;;;0.70;0.70;;;5.20;99.90;;;;;;5071731;28;20199;-74
2022/05/16 02:59:35;;;;;;;0.70;0.70;;;5.10;99.90;;;;;;5051346;28;20309;-74
2022/05/16 03:02:02;;;;;;;0.70;0.70;;;5.20;99.90;;;;;;5059843;28;20207;-73
2022/05/16 03:04:28;;;;;;;0.80;0.80;;;5.20;99.90;;;;;;5072795;28;20651;-73
2022/05/16 03:06:54;;;;;;;0.80;0.80;;;5.10;99.90;;;;;;5072972;28;20378;-73
2022/05/16 03:09:21;;;;;;;0.70;0.70;;;5.20;99.90;;;;;;5071809;28;20258;-73
2022/05/16 03:11:48;;;;;;;0.80;0.80;;;5.10;99.90;;;;;;5072169;28;20192;-74
2022/05/16 03:14:14;;;;;;;0.80;0.80;;;5.20;99.90;;;;;;5072803;28;20547;-73
2022/05/16 03:16:39;;;;;;;0.80;0.80;;;5.20;99.90;;;;;;5070821;28;20207;-73
2022/05/16 03:19:06;;;;;;;0.70;0.70;;;5.30;99.90;;;;;;5054582;28;20645;-73
2022/05/16 03:21:32;;;;;;;0.70;0.70;;;5.30;99.90;;;;;;5052523;28;20236;-73
2022/05/16 03:23:59;;;;;;;0.80;0.80;;;5.40;99.90;;;;;;5051296;28;20271;-73
2022/05/16 03:26:25;;;;;;;0.70;0.70;;;5.40;99.90;;;;;;5052505;28;20197;-73
2022/05/16 03:28:51;;;;;;;0.80;0.80;;;5.50;99.90;;;;;;5052735;28;20246;-73
2022/05/16 03:31:17;;;;;;;0.70;0.70;;;5.50;99.90;;;;;;5058132;28;20232;-73
2022/05/16 03:33:43;;;;;;;0.70;0.70;;;5.50;99.90;;;;;;5076327;28;20263;-74
2022/05/16 03:36:09;;;;;;;0.80;0.80;;;5.50;99.90;;;;;;5075362;28;20193;-74
2022/05/16 03:41:20;;;;;;;0.80;0.80;;;5.60;99.90;;;;;;5076609;28;20292;-74
2022/05/16 03:43:46;;;;;;;0.70;0.70;;;5.70;99.90;;;;;;5076395;28;20607;-73
2022/05/16 03:46:12;;;;;;;1.30;1.20;;;5.80;99.90;;;;;;5075081;28;20207;-74
2022/05/16 03:48:39;;;;;;;0.80;0.80;;;5.80;99.90;;;;;;5074918;28;20295;-74
2022/05/16 03:51:07;;;;;;;0.60;0.60;;;5.90;99.90;;;;;;5075137;28;20193;-73
2022/05/16 03:53:36;;;;;;;0.70;0.70;;;5.90;99.90;;;;;;5073369;28;20216;-74
2022/05/16 03:56:03;;;;;;;0.80;0.80;;;6.00;99.90;;;;;;5054897;28;20193;-74
2022/05/16 03:58:29;;;;;;;0.77;0.77;;;6.00;99.90;;;;;;5062456;28;20201;-74
2022/05/16 04:00:54;;;;;;;0.70;0.70;;;6.00;99.90;;;;;;5054766;28;20615;-74
2022/05/16 04:03:20;;;;;;;0.70;0.70;;;6.10;99.90;;;;;;5054107;28;20292;-73
2022/05/16 04:05:46;;;;;;;0.80;0.80;;;6.10;99.90;;;;;;5055953;28;20198;-74
2022/05/16 04:08:11;;;;;;;0.70;0.70;;;6.10;99.90;;;;;;5054773;28;20235;-74
2022/05/16 04:10:37;;;;;;;0.88;0.88;;;6.20;99.90;;;;;;5054387;28;20205;-73
2022/05/16 04:13:03;;;;;;;0.77;0.77;;;6.30;99.90;;;;;;5055564;28;20202;-73
2022/05/16 04:15:29;;;;;;;0.80;0.80;;;6.50;99.90;;;;;;5106125;28;20225;-74
2022/05/16 04:17:55;;;;;;;0.70;0.70;;;6.60;99.90;;;;;;5074505;28;20200;-74
2022/05/16 04:20:21;;;;;;;0.70;0.70;;;6.70;99.90;;;;;;5075402;28;20196;-73
2022/05/16 04:22:47;;;;;;;0.70;0.70;;;6.70;99.90;;;;;;5074388;28;20193;-74
2022/05/16 04:25:16;;;;;;;0.93;0.93;;;6.80;99.90;;;;;;5075545;28;20215;-73
2022/05/16 04:27:42;;;;;;;0.70;0.70;;;6.80;99.90;;;;;;5073995;28;20215;-73
2022/05/16 04:30:08;;;;;;;0.80;0.80;;;6.90;99.90;;;;;;5075718;28;20184;-73
2022/05/16 04:32:34;;;;;;;0.77;0.77;;;7.00;99.90;;;;;;5075079;28;20279;-74
2022/05/16 04:35:00;;;;;;;0.65;0.65;;;7.10;99.90;;;;;;5074011;28;20268;-73
2022/05/16 04:37:32;;;;;;;0.70;0.70;;;7.10;99.90;;;;;;5075574;28;20215;-73
2022/05/16 04:39:58;;;;;;;0.70;0.70;;;7.20;99.90;;;;;;5073944;28;20267;-74
2022/05/16 04:42:43;;;;;;;0.75;0.75;;;7.30;99.90;;;;;;5074723;28;20267;-73
2022/05/16 04:45:35;;;;;;;0.60;0.60;;;7.40;99.90;;;;;;5073632;28;20228;-74
2022/05/16 04:48:01;;;;;;;0.73;0.73;;;7.40;99.90;;;;;;5070886;28;20752;-73
2022/05/16 04:50:29;;;;;;;0.63;0.63;;;7.40;99.90;;;;;;5068215;28;20198;-74
2022/05/16 04:52:56;;;;;;;0.90;0.90;;;7.50;99.90;;;;;;5053644;28;20608;-73
2022/05/16 04:55:23;;;;;;;1.00;1.00;;;7.50;99.90;;;;;;5053146;28;20193;-73
2022/05/16 04:57:49;;;;;;;0.60;0.60;;;7.40;99.90;;;;;;5054291;28;20207;-73
2022/05/16 05:00:17;;;;;;;0.70;0.70;;;7.40;99.90;;;;;;5053761;28;20205;-73
2022/05/16 05:02:44;;;;;;;0.90;0.90;;;7.30;99.90;;;;;;5054791;28;20190;-74
2022/05/16 05:05:10;;;;;;;0.70;0.70;;;7.30;99.90;;;;;;5055004;28;20212;-74
2022/05/16 05:07:37;;;;;;;0.73;0.73;;;7.40;99.90;;;;;;5054501;28;20201;-73
2022/05/16 05:15:36;;;;;;;0.70;0.70;;;7.40;99.90;;;;;;5074556;28;20730;-73
2022/05/16 05:18:03;;;;;;;0.80;0.80;;;7.50;99.90;;;;;;5073345;28;20204;-74
2022/05/16 05:20:29;;;;;;;0.70;0.70;;;7.50;99.90;;;;;;5073041;28;20200;-73
2022/05/16 05:22:55;;;;;;;0.70;0.70;;;7.70;99.90;;;;;;5074567;28;20223;-73
2022/05/16 05:25:21;;;;;;;0.65;0.65;;;7.90;99.90;;;;;;5072824;28;20196;-73
2022/05/16 05:27:49;;;;;;;0.70;0.70;;;8.00;99.30;;;;;;5073047;28;20216;-73
2022/05/16 05:30:19;;;;;;;0.70;0.70;;;8.00;99.70;;;;;;5074480;28;20303;-72
2022/05/16 05:32:47;;;;;;;0.75;0.75;;;8.10;98.70;;;;;;5073116;28;20279;-73
2022/05/16 05:35:13;;;;;;;0.90;0.90;;;8.00;98.80;;;;;;5074129;28;20744;-74
2022/05/16 05:37:39;;;;;;;0.68;0.68;;;8.10;98.80;;;;;;5072784;28;20215;-73
2022/05/16 05:40:06;;;;;;;0.80;0.80;;;8.10;98.10;;;;;;5074062;28;20594;-73
2022/05/16 05:42:33;;;;;;;0.70;0.70;;;8.00;97.80;;;;;;5072582;28;20696;-73
2022/05/16 05:44:59;;;;;;;0.68;0.68;;;8.00;98.00;;;;;;5072842;28;20196;-73
2022/05/16 05:47:26;;;;;;;0.65;0.65;;;8.00;97.50;;;;;;5072290;28;20201;-74
2022/05/16 05:49:51;;;;;;;0.80;0.80;;;8.20;98.20;;;;;;5072088;28;20575;-72
2022/05/16 05:52:18;;;;;;;0.70;0.70;;;8.30;97.30;;;;;;5073361;28;20196;-72
2022/05/16 05:54:47;;;;;;;0.80;0.80;;;8.50;96.30;;;;;;5073870;28;20193;-71
2022/05/16 05:57:16;;;;;;;0.70;0.70;;;8.50;97.30;;;;;;5072777;28;20602;-71
2022/05/16 05:59:42;;;;;;;0.70;0.70;;;8.60;97.20;;;;;;5053757;28;20594;-72
2022/05/16 06:02:09;;;;;;;1.23;1.13;;;8.70;96.40;;;;;;5052278;28;20589;-72
2022/05/16 06:04:35;;;;;;;0.68;0.68;;;8.70;96.20;;;;;;5053520;28;20195;-71
2022/05/16 06:07:01;;;;;;;0.60;0.60;;;8.70;96.60;;;;;;5052257;28;20431;-72
2022/05/16 06:09:28;;;;;;;0.60;0.60;;;8.80;96.20;;;;;;5052096;28;20209;-72
2022/05/16 06:11:58;;;;;;;0.80;0.80;;;9.00;95.70;;;;;;5053779;28;20196;-72
2022/05/16 06:14:26;;;;;;;0.60;0.60;;;9.00;94.90;;;;;;5052178;28;20229;-71
2022/05/16 06:16:52;;;;;;;0.65;0.65;;;9.10;95.50;;;;;;5052233;28;20208;-72
2022/05/16 06:19:18;;;;;;;0.70;0.70;;;9.00;94.70;;;;;;5052177;28;20229;-72
2022/05/16 06:21:43;;;;;;;0.70;0.70;;;8.80;94.40;;;;;;5070022;28;20228;-73
2022/05/16 06:25:31;;;;;;;0.60;0.60;;;8.80;93.80;;;;;;5072006;28;20197;-72
2022/05/16 06:26:55;;;;;;;0.75;0.75;;;8.80;95.20;;;;;;5073132;28;20197;-72
2022/05/16 06:29:21;;;;;;;0.60;0.60;;;8.80;95.40;;;;;;5073029;28;20211;-72
2022/05/16 06:31:50;;;;;;;0.70;0.70;;;9.00;94.90;;;;;;5073279;28;20524;-73
2022/05/16 06:34:15;;;;;;;0.63;0.63;;;9.00;94.60;;;;;;5073193;28;20295;-72
2022/05/16 06:36:41;;;;;;;0.60;0.60;;;9.10;93.90;;;;;;5073134;28;20232;-72
2022/05/16 06:39:07;;;;;;;0.90;0.90;;;9.30;94.10;;;;;;5071168;28;20233;-72
2022/05/16 06:41:34;;;;;;;0.60;0.60;;;9.40;93.60;;;;;;5072922;28;20703;-72
2022/05/16 06:44:01;;;;;;;0.60;0.60;;;9.40;93.40;;;;;;5056228;28;20197;-72
2022/05/16 06:46:27;;;;;;;0.70;0.70;;;9.50;92.90;;;;;;5052851;28;20673;-72
2022/05/16 06:48:54;;;;;;;0.70;0.70;;;9.40;92.70;;;;;;5053085;28;20320;-72
2022/05/16 06:51:20;;;;;;;0.68;0.68;;;9.50;93.20;;;;;;5051470;28;20706;-72
2022/05/16 06:53:45;;;;;;;0.70;0.70;;;9.60;93.00;;;;;;5053034;28;20277;-72
2022/05/16 06:56:12;;;;;;;0.65;0.65;;;9.70;92.80;;;;;;5051251;28;20227;-72
2022/05/16 06:58:38;;;;;;;0.60;0.60;;;9.70;92.80;;;;;;5052253;28;20192;-73
2022/05/16 07:01:04;;;;;;;0.70;0.70;;;9.90;92.90;;;;;;5052394;28;20592;-72
2022/05/16 07:03:32;;;;;;;2.47;1.70;;;10.10;92.30;;;;;;5062198;28;20200;-72
2022/05/16 07:05:58;;;;;;;0.70;0.70;;;10.30;92.70;;;;;;5072890;28;20197;-73
2022/05/16 07:08:24;;;;;;;0.57;0.57;;;10.40;91.90;;;;;;5072545;28;20208;-73
2022/05/16 07:10:50;;;;;;;0.70;0.70;;;10.70;91.40;;;;;;5072739;28;20193;-72
2022/05/16 07:13:16;;;;;;;3.53;1.40;;;10.80;90.10;;;;;;5072842;28;20180;-73
2022/05/16 07:15:42;;;;;;;0.60;0.60;;;10.90;91.40;;;;;;5072659;28;20193;-72
2022/05/16 07:18:09;;;;;;;0.60;0.60;;;10.80;89.70;;;;;;5071197;28;20215;-73
2022/05/16 07:20:36;;;;;;;0.60;0.60;;;10.60;90.00;;;;;;5071914;28;20704;-73
2022/05/16 07:23:02;;;;;;;0.70;0.70;;;10.70;90.00;;;;;;5072711;28;20663;-73
2022/05/16 07:25:29;;;;;;;0.60;0.60;;;10.70;90.00;;;;;;5072397;28;20201;-73
2022/05/16 07:27:59;;;;;;;0.55;0.55;;;10.80;89.90;;;;;;5071290;28;20274;-72
2022/05/16 07:30:33;;;;;;;0.60;0.60;;;10.80;90.50;;;;;;5071075;28;20189;-72
2022/05/16 07:33:00;;;;;;;0.90;0.90;;;10.90;89.70;;;;;;5072239;28;20698;-73
2022/05/16 07:35:30;;;;;;;0.60;0.60;;;11.00;90.50;;;;;;5071125;28;20551;-73
2022/05/16 07:37:56;;;;;;;0.60;0.60;;;11.00;85.80;;;;;;5072599;28;20606;-72
2022/05/16 07:40:28;;;;;;;0.85;0.85;;;11.00;88.20;;;;;;5071767;28;20197;-72
2022/05/16 07:42:54;;;;;;;0.50;0.50;;;11.30;88.40;;;;;;5070653;28;20209;-73
2022/05/16 07:45:21;;;;;;;0.60;0.60;;;11.30;87.40;;;;;;5071058;28;20205;-72
2022/05/16 07:47:48;;;;;;;0.63;0.63;;;11.50;89.00;;;;;;5072351;28;20207;-73
2022/05/16 07:50:14;;;;;;;0.50;0.50;;;11.70;85.50;;;;;;5071070;28;20196;-73
2022/05/16 07:52:46;;;;;;;0.40;0.40;;;11.70;87.50;;;;;;5070803;28;20197;-73
2022/05/16 07:55:12;;;;;;;0.50;0.50;;;11.90;84.90;;;;;;5071153;28;20204;-72
2022/05/16 07:57:38;;;;;;;0.60;0.60;;;11.80;83.50;;;;;;5066626;28;20680;-73
2022/05/16 08:00:05;;;;;;;0.50;0.50;;;12.20;88.50;;;;;;5050984;28;20662;-73
2022/05/16 08:02:31;;;;;;;0.60;0.60;;;12.50;85.70;;;;;;5050731;28;20194;-73
2022/05/16 08:04:57;;;;;;;0.50;0.50;;;12.80;83.20;;;;;;5050909;28;20194;-72
2022/05/16 08:07:22;;;;;;;0.50;0.50;;;13.00;80.30;;;;;;5051826;28;20648;-74
2022/05/16 08:12:35;;;;;;;0.57;0.57;;;12.70;80.40;;;;;;5054342;28;20732;-73
2022/05/16 08:15:01;;;;;;;0.55;0.55;;;12.50;82.40;;;;;;5072366;28;20188;-73
2022/05/16 08:17:29;;;;;;;0.60;0.60;;;12.50;82.30;;;;;;5074210;28;20680;-73
2022/05/16 08:19:58;;;;;;;0.50;0.50;;;12.50;79.70;;;;;;5074385;28;20192;-73
2022/05/16 08:22:29;;;;;;;0.50;0.50;;;12.70;80.10;;;;;;5074100;28;20193;-73
2022/05/16 08:24:56;;;;;;;0.50;0.50;;;13.10;79.20;;;;;;5075487;28;20628;-74
2022/05/16 08:27:22;;;;;;;0.50;0.50;;;13.00;79.20;;;;;;5074039;28;20284;-73
2022/05/16 08:29:47;;;;;;;0.50;0.50;;;13.30;79.30;;;;;;5074042;28;20299;-74
2022/05/16 08:32:15;;;;;;;0.47;0.47;;;13.60;80.40;;;;;;5074277;28;20189;-74
2022/05/16 08:34:42;;;;;;;0.40;0.40;;;13.70;80.60;;;;;;5073618;28;20305;-73
2022/05/16 08:40:12;;;;;;;0.50;0.50;;;14.10;77.40;;;;;;5075463;28;20315;-74
2022/05/16 08:42:54;;;;;;;0.50;0.50;;;14.10;78.30;;;;;;5074857;28;20216;-73
2022/05/16 08:45:41;;;;;;;0.60;0.60;;;13.90;77.20;;;;;;5073678;28;20208;-73
2022/05/16 08:48:28;;;;;;;0.40;0.40;;;14.20;79.80;;;;;;5073865;28;20262;-73
2022/05/16 08:51:04;;;;;;;0.57;0.57;;;14.10;76.50;;;;;;5073838;28;20349;-74
2022/05/16 08:53:39;;;;;;;0.40;0.40;;;13.50;79.40;;;;;;5073667;28;20188;-73
2022/05/16 08:56:08;;;;;;;0.40;0.40;;;13.70;78.20;;;;;;5062283;28;20560;-73
2022/05/16 08:58:41;;;;;;;0.50;0.50;;;13.50;78.00;;;;;;5053510;28;20205;-73
2022/05/16 09:01:10;;;;;;;0.40;0.40;;;13.90;76.30;;;;;;5053661;28;20224;-73
2022/05/16 09:03:54;;;;;;;0.50;0.50;;;14.10;77.80;;;;;;5053419;28;20292;-73
2022/05/16 09:06:30;;;;;;;0.40;0.40;;;14.20;78.40;;;;;;5053419;28;20577;-73
2022/05/16 09:09:07;;;;;;;0.50;0.50;;;14.20;75.90;;;;;;5063144;28;20195;-73
2022/05/16 09:12:01;;;;;;;0.50;0.50;;;14.60;79.00;;;;;;5094722;28;20709;-73
2022/05/16 09:14:54;;;;;;;0.40;0.40;;;14.90;75.60;;;;;;5093241;28;20248;-73
2022/05/16 09:17:45;;;;;;;0.40;0.40;;;15.20;76.70;;;;;;5092942;28;20207;-73
2022/05/16 09:20:38;;;;;;;0.40;0.40;;;15.40;73.60;;;;;;5093539;28;20291;-73
2022/05/16 09:23:33;;;;;;;0.45;0.45;;;15.30;73.50;;;;;;5094721;28;20192;-73
2022/05/16 09:26:09;;;;;;;1.35;0.60;;;15.20;75.70;;;;;;5065845;28;20212;-73
2022/05/16 09:28:42;;;;;;;1.60;0.50;;;15.40;75.60;;;;;;5093075;28;20249;-73
2022/05/16 09:31:17;;;;;;;0.70;0.60;;;15.80;74.10;;;;;;5092374;28;20192;-74
2022/05/16 09:33:47;;;;;;;0.47;0.47;;;15.80;70.90;;;;;;5072688;28;20226;-73
2022/05/16 09:36:14;;;;;;;0.40;0.40;;;15.70;76.60;;;;;;5074466;28;20263;-74
2022/05/16 09:38:44;;;;;;;0.40;0.40;;;16.00;73.30;;;;;;5072651;28;20207;-74
2022/05/16 09:41:34;;;;;;;0.30;0.30;;;15.90;72.40;;;;;;5072935;28;20243;-73
2022/05/16 09:44:05;;;;;;;0.70;0.70;;;16.20;74.40;;;;;;5072733;28;20232;-72
2022/05/16 09:46:37;;;;;;;0.40;0.40;;;16.00;71.70;;;;;;5056260;28;20655;-73
2022/05/16 09:49:22;;;;;;;0.40;0.40;;;15.90;71.50;;;;;;5073925;28;20205;-72
2022/05/16 09:51:51;;;;;;;0.30;0.30;;;16.20;72.90;;;;;;5065823;28;20748;-73
2022/05/16 09:54:36;;;;;;;0.40;0.40;;;16.50;70.30;;;;;;5052741;28;20285;-72
2022/05/16 09:57:05;;;;;;;0.40;0.40;;;16.60;73.10;;;;;;5052635;28;20334;-73
2022/05/16 10:00:12;;;;;;;1.42;0.60;;;16.60;67.80;;;;;;5068658;28;20208;-72
2022/05/16 10:02:38;;;;;;;0.40;0.40;;;16.30;71.00;;;;;;5053499;28;20197;-72
2022/05/16 10:05:19;;;;;;;0.30;0.30;;;16.60;74.30;;;;;;5055347;28;20200;-73
2022/05/16 10:07:49;;;;;;;1.27;0.82;;;16.50;69.80;;;;;;5072309;28;20287;-73
2022/05/16 10:10:22;;;;;;;0.55;0.40;;;16.70;67.00;;;;;;5073461;28;20278;-73
2022/05/16 10:12:50;;;;;;;0.30;0.30;;;16.80;66.70;;;;;;5072296;28;20334;-73
2022/05/16 10:15:17;;;;;;;0.40;0.40;;;16.80;71.00;;;;;;5072391;28;20208;-73
2022/05/16 10:17:45;;;;;;;0.30;0.30;;;16.90;72.50;;;;;;5071944;28;20609;-73
2022/05/16 10:20:16;;;;;;;0.30;0.30;;;17.20;67.80;;;;;;5073430;28;20185;-73
2022/05/16 10:22:42;;;;;;;0.30;0.30;;;17.20;68.30;;;;;;5071931;28;20193;-73
2022/05/16 10:25:18;;;;;;;0.40;0.40;;;17.10;68.30;;;;;;5072068;28;20188;-73
2022/05/16 10:27:46;;;;;;;0.30;0.30;;;17.30;68.40;;;;;;5071874;28;20196;-73
2022/05/16 10:30:26;;;;;;;0.30;0.30;;;17.30;66.70;;;;;;5071892;28;20197;-73
2022/05/16 10:36:12;;;;;;;0.52;0.50;;;17.20;66.70;;;;;;5073310;28;20776;-73
2022/05/16 10:38:46;;;;;;;0.73;0.73;;;17.40;67.70;;;;;;5070857;28;20215;-73
2022/05/16 10:41:19;;;;;;;0.30;0.30;;;17.50;62.60;;;;;;5073410;28;20197;-73
2022/05/16 10:44:08;;;;;;;1.55;0.60;;;17.70;66.40;;;;;;5073105;28;20280;-73
2022/05/16 10:46:38;;;;;;;0.30;0.30;;;17.70;61.10;;;;;;5071451;28;20675;-73
2022/05/16 10:49:10;;;;;;;0.30;0.30;;;17.80;63.60;;;;;;5054994;28;20205;-72
2022/05/16 10:51:49;;;;;;;0.30;0.30;;;17.90;64.70;;;;;;5052661;28;20194;-73
2022/05/16 10:54:21;;;;;;;0.85;0.40;;;18.20;61.90;;;;;;5053093;28;20192;-72
2022/05/16 10:57:13;;;;;;;0.30;0.30;;;18.50;62.80;;;;;;5052923;28;20282;-73
2022/05/16 10:59:51;;;;;;;0.20;0.20;;;18.60;59.70;;;;;;5068155;28;20205;-73
2022/05/16 11:02:53;;;;;;;0.20;0.20;;;18.90;66.10;;;;;;5071578;28;20671;-73
2022/05/16 11:05:49;;;;;;;0.30;0.30;;;19.40;61.80;;;;;;5071651;28;20193;-73
2022/05/16 11:08:52;;;;;;;0.25;0.25;;;19.70;59.90;;;;;;5072999;28;20250;-73
2022/05/16 11:11:36;;;;;;;0.30;0.30;;;19.20;64.40;;;;;;5071580;28;20203;-73
2022/05/16 11:14:27;;;;;;;0.30;0.30;;;19.10;61.70;;;;;;5073210;28;20223;-73
2022/05/16 11:16:59;;;;;;;0.30;0.30;;;19.00;61.50;;;;;;5072743;28;20682;-73
2022/05/16 11:19:35;;;;;;;0.20;0.20;;;18.80;65.00;;;;;;5070961;28;20540;-74
2022/05/16 11:22:28;;;;;;;0.30;0.30;;;19.30;62.60;;;;;;5071043;28;20251;-73
2022/05/16 11:25:05;;;;;;;0.25;0.25;;;19.40;61.50;;;;;;5071418;28;20204;-73
2022/05/16 11:28:00;;;;;;;0.20;0.20;;;19.20;62.40;;;;;;5072217;28;20250;-73
2022/05/16 11:30:46;;;;;;;0.30;0.30;;;19.00;58.00;;;;;;5072270;28;20205;-73
2022/05/16 11:33:17;;;;;;;0.85;0.65;;;19.00;62.60;;;;;;5071248;28;20282;-73
2022/05/16 11:35:53;;;;;;;0.28;0.28;;;19.60;59.60;;;;;;5072370;28;20193;-73
2022/05/16 11:38:25;;;;;;;1.98;0.57;;;19.40;60.40;;;;;;5071175;28;20238;-73
2022/05/16 11:41:21;;;;;;;0.30;0.30;;;19.20;57.70;;;;;;5071316;28;20565;-73
2022/05/16 11:43:50;;;;;;;0.30;0.30;;;19.80;64.50;;;;;;5071121;28;20200;-74
2022/05/16 11:46:41;;;;;;;0.20;0.20;;;20.20;60.90;;;;;;5072349;28;20565;-73
2022/05/16 11:49:15;;;;;;;0.20;0.20;;;20.20;56.40;;;;;;5071279;28;20226;-73
2022/05/16 11:51:53;;;;;;;0.73;0.40;;;19.40;59.30;;;;;;5076182;28;20193;-73
2022/05/16 11:54:28;;;;;;;0.20;0.20;;;19.10;59.70;;;;;;5075105;28;20196;-74
2022/05/16 12:02:47;;;;;;;3.40;0.50;;;19.10;60.60;;;;;;5075964;28;20212;-73
2022/05/16 12:05:19;;;;;;;0.30;0.30;;;19.10;60.90;;;;;;5076029;28;20189;-74
2022/05/16 12:07:57;;;;;;;0.20;0.20;;;19.40;58.10;;;;;;5074551;28;20189;-74
2022/05/16 12:10:29;;;;;;;0.38;0.38;;;19.40;57.70;;;;;;5074416;28;20234;-73
2022/05/16 12:13:24;;;;;;;0.20;0.20;;;19.70;58.20;;;;;;5075636;28;20185;-74
2022/05/16 12:16:14;;;;;;;0.20;0.20;;;20.20;57.00;;;;;;5074512;28;20538;-74
2022/05/16 12:18:48;;;;;;;0.20;0.20;;;20.40;56.70;;;;;;5075619;28;20713;-74
2022/05/16 12:21:20;;;;;;;0.40;0.40;;;20.30;59.30;;;;;;5075439;28;20193;-74
2022/05/16 12:23:49;;;;;;;0.20;0.20;;;20.60;58.20;;;;;;5075479;28;20498;-74
2022/05/16 12:26:26;;;;;;;0.30;0.30;;;20.20;57.30;;;;;;5075461;28;20197;-74
2022/05/16 12:29:07;;;;;;;0.20;0.20;;;20.20;58.50;;;;;;5074298;28;20213;-74
2022/05/16 12:31:44;;;;;;;3.35;0.70;;;20.30;58.00;;;;;;5073825;28;20242;-74
2022/05/16 12:34:11;;;;;;;0.30;0.30;;;20.20;55.30;;;;;;5075568;28;20687;-74
2022/05/16 12:36:37;;;;;;;0.20;0.20;;;19.70;56.60;;;;;;5074014;28;20610;-74
2022/05/16 12:39:09;;;;;;;1.00;0.47;;;19.80;57.10;;;;;;5074033;28;20208;-74
2022/05/16 12:41:55;;;;;;;0.30;0.30;;;19.90;57.80;;;;;;5058620;28;20205;-74
2022/05/16 12:44:33;;;;;;;0.30;0.30;;;20.10;57.30;;;;;;5053764;28;20193;-74
2022/05/16 12:47:23;;;;;;;0.20;0.20;;;20.20;58.00;;;;;;5055139;28;20572;-74
2022/05/16 12:50:18;;;;;;;0.30;0.30;;;20.70;55.80;;;;;;5053955;28;20214;-74
2022/05/16 12:52:43;;;;;;;0.25;0.25;;;20.50;56.30;;;;;;5053655;28;20293;-74
2022/05/16 12:55:41;;;;;;;0.73;0.25;;;20.70;54.80;;;;;;5067275;28;20280;-74
2022/05/16 12:58:16;;;;;;;8.35;0.90;;;21.00;55.80;;;;;;5066744;28;20194;-74
2022/05/16 13:01:21;;;;;;;0.50;0.50;;;20.70;55.10;;;;;;5073480;28;20655;-74
2022/05/16 13:04:09;;;;;;;0.20;0.20;;;20.40;56.90;;;;;;5070436;28;20209;-73
2022/05/16 13:06:46;;;;;;;0.20;0.20;;;20.90;56.40;;;;;;5073409;28;20197;-73
2022/05/16 13:09:31;;;;;;;0.20;0.20;;;21.20;55.30;;;;;;5073461;28;20216;-74
2022/05/16 13:12:05;;;;;;;0.20;0.20;;;21.30;56.50;;;;;;5073332;28;20280;-74
2022/05/16 13:14:38;;;;;;;0.20;0.20;;;21.00;55.30;;;;;;5075050;28;20201;-74
2022/05/16 13:17:10;;;;;;;0.20;0.20;;;21.10;56.20;;;;;;5072939;28;20201;-74
2022/05/16 13:19:43;;;;;;;0.20;0.20;;;21.40;53.20;;;;;;5073024;28;20327;-73
2022/05/16 13:22:21;;;;;;;0.45;0.45;;;20.70;55.50;;;;;;5053373;28;20198;-73
2022/05/16 13:24:52;;;;;;;0.20;0.20;;;20.90;55.40;;;;;;5053086;28;20208;-74
2022/05/16 13:30:11;;;;;;;0.20;0.20;;;20.50;54.10;;;;;;5054793;28;20247;-73
2022/05/16 13:32:39;;;;;;;0.20;0.20;;;20.40;55.70;;;;;;5054076;28;20194;-74
2022/05/16 13:35:12;;;;;;;0.20;0.20;;;20.30;54.70;;;;;;5052888;28;20225;-74
2022/05/16 13:37:49;;;;;;;0.20;0.20;;;20.20;56.00;;;;;;5067567;28;20283;-74
2022/05/16 13:40:30;;;;;;;0.30;0.30;;;20.60;54.80;;;;;;5074077;28;20203;-74
2022/05/16 13:42:57;;;;;;;0.30;0.30;;;20.50;55.00;;;;;;5072652;28;20199;-74
2022/05/16 13:45:26;;;;;;;0.50;0.50;;;20.20;56.50;;;;;;5072482;28;20201;-73